createdAt,value
2019-02-10T00:00:44.526Z,7.60
2019-02-10T00:03:12.669Z,7.60
2019-02-10T00:05:40.898Z,7.60
2019-02-10T00:08:09.069Z,7.60
2019-02-10T00:10:37.242Z,7.60
2019-02-10T00:13:24.931Z,7.50
2019-02-10T00:15:53.252Z,7.60
2019-02-10T00:18:21.425Z,7.60
2019-02-10T00:20:49.590Z,7.60
2019-02-10T00:23:17.757Z,7.60
2019-02-10T00:25:45.986Z,7.60
2019-02-10T00:28:14.146Z,7.60
2019-02-10T00:30:42.351Z,7.60
2019-02-10T00:33:10.506Z,7.70
2019-02-10T00:35:38.637Z,7.70
2019-02-10T00:38:06.882Z,7.70
2019-02-10T00:40:35.011Z,7.80
2019-02-10T00:43:03.185Z,7.80
2019-02-10T00:45:31.324Z,7.80
2019-02-10T00:47:59.482Z,7.80
2019-02-10T00:50:27.626Z,7.80
2019-02-10T00:52:55.798Z,7.80
2019-02-10T00:55:23.934Z,7.80
2019-02-10T00:57:52.102Z,7.90
2019-02-10T01:00:20.330Z,7.80
2019-02-10T01:02:48.568Z,7.80
2019-02-10T01:05:17.038Z,7.80
2019-02-10T01:07:45.202Z,7.90
2019-02-10T01:10:13.613Z,7.90
2019-02-10T01:12:41.874Z,7.90
2019-02-10T01:15:10.107Z,8.00
2019-02-10T01:17:38.326Z,8.00
2019-02-10T01:20:25.822Z,8.00
2019-02-10T01:22:53.994Z,8.00
2019-02-10T01:25:22.130Z,8.00
2019-02-10T01:27:50.287Z,8.00
2019-02-10T01:30:18.455Z,8.00
2019-02-10T01:32:46.758Z,8.00
2019-02-10T01:35:14.994Z,8.00
2019-02-10T01:37:43.168Z,8.00
2019-02-10T01:40:11.444Z,8.00
2019-02-10T01:42:39.642Z,8.10
2019-02-10T01:45:08.986Z,8.00
2019-02-10T01:47:37.123Z,8.00
2019-02-10T01:50:06.551Z,8.00
2019-02-10T01:52:34.722Z,8.10
2019-02-10T01:55:02.960Z,8.10
2019-02-10T01:57:31.151Z,8.10
2019-02-10T01:59:59.310Z,8.20
2019-02-10T02:02:27.534Z,8.20
2019-02-10T02:04:55.803Z,8.20
2019-02-10T02:07:24.015Z,8.20
2019-02-10T02:09:52.216Z,8.20
2019-02-10T02:12:39.699Z,8.20
2019-02-10T02:15:09.418Z,8.20
2019-02-10T02:17:37.634Z,8.10
2019-02-10T02:20:06.726Z,8.00
2019-02-10T02:22:35.016Z,7.90
2019-02-10T02:25:03.330Z,7.80
2019-02-10T02:27:31.474Z,7.80
2019-02-10T02:29:59.633Z,7.70
2019-02-10T02:32:28.036Z,7.60
2019-02-10T02:34:56.168Z,7.60
2019-02-10T02:37:24.329Z,7.50
2019-02-10T02:39:52.478Z,7.50
2019-02-10T02:42:20.652Z,7.40
2019-02-10T02:44:48.871Z,7.40
2019-02-10T02:47:17.155Z,7.40
2019-02-10T02:49:45.374Z,7.40
2019-02-10T02:52:13.537Z,7.40
2019-02-10T02:54:41.690Z,7.40
2019-02-10T02:57:09.835Z,7.40
2019-02-10T02:59:37.979Z,7.50
2019-02-10T03:02:06.171Z,7.40
2019-02-10T03:04:34.315Z,7.40
2019-02-10T03:07:02.547Z,7.40
2019-02-10T03:09:30.696Z,7.40
2019-02-10T03:12:04.892Z,7.30
2019-02-10T03:14:33.077Z,7.30
2019-02-10T03:17:01.241Z,7.20
2019-02-10T03:19:29.382Z,7.20
2019-02-10T03:21:57.532Z,7.10
2019-02-10T03:24:25.725Z,7.10
2019-02-10T03:27:13.400Z,7.10
2019-02-10T03:29:41.605Z,7.10
2019-02-10T03:32:09.769Z,7.00
2019-02-10T03:34:37.906Z,7.00
2019-02-10T03:37:06.068Z,6.90
2019-02-10T03:39:34.323Z,6.90
2019-02-10T03:42:02.541Z,6.90
2019-02-10T03:44:30.701Z,6.90
2019-02-10T03:46:58.835Z,6.80
2019-02-10T03:49:27.018Z,6.80
2019-02-10T03:51:55.166Z,6.80
2019-02-10T03:54:23.332Z,6.80
2019-02-10T03:56:51.570Z,6.70
2019-02-10T03:59:19.731Z,6.60
2019-02-10T04:01:47.886Z,6.60
2019-02-10T04:04:16.061Z,6.60
2019-02-10T04:06:44.205Z,6.50
2019-02-10T04:09:12.378Z,6.50
2019-02-10T04:11:40.590Z,6.40
2019-02-10T04:14:08.751Z,6.40
2019-02-10T04:16:36.976Z,6.40
2019-02-10T04:19:05.130Z,6.40
2019-02-10T04:21:33.427Z,6.40
2019-02-10T04:24:01.611Z,6.40
2019-02-10T04:26:29.795Z,6.40
2019-02-10T04:28:58.189Z,6.30
2019-02-10T04:31:26.411Z,6.30
2019-02-10T04:33:54.550Z,6.30
2019-02-10T04:36:22.711Z,6.40
2019-02-10T04:38:50.851Z,6.30
2019-02-10T04:41:19.025Z,6.30
2019-02-10T04:43:47.226Z,6.30
2019-02-10T04:46:15.479Z,6.30
2019-02-10T04:48:43.636Z,6.30
2019-02-10T04:51:13.402Z,6.30
2019-02-10T04:53:41.667Z,6.30
2019-02-10T04:56:22.526Z,6.30
2019-02-10T04:58:50.666Z,6.30
2019-02-10T05:01:18.842Z,6.30
2019-02-10T05:03:46.975Z,6.30
2019-02-10T05:06:15.143Z,6.30
2019-02-10T05:08:43.354Z,6.40
2019-02-10T05:11:11.518Z,6.40
2019-02-10T05:13:39.715Z,6.40
2019-02-10T05:16:07.990Z,6.40
2019-02-10T05:18:36.155Z,6.40
2019-02-10T05:21:04.319Z,6.40
2019-02-10T05:23:32.498Z,6.40
2019-02-10T05:26:00.636Z,6.40
2019-02-10T05:28:28.797Z,6.40
2019-02-10T05:30:56.966Z,6.40
2019-02-10T05:33:25.203Z,6.50
2019-02-10T05:35:53.342Z,6.50
2019-02-10T05:38:21.521Z,6.50
2019-02-10T05:40:49.935Z,6.50
2019-02-10T05:43:18.119Z,6.60
2019-02-10T05:45:46.327Z,6.60
2019-02-10T05:48:14.498Z,6.60
2019-02-10T05:50:42.707Z,6.60
2019-02-10T05:53:10.897Z,6.70
2019-02-10T05:55:39.051Z,6.70
2019-02-10T05:58:26.627Z,6.70
2019-02-10T06:00:56.308Z,6.70
2019-02-10T06:03:24.550Z,6.70
2019-02-10T06:05:52.679Z,6.70
2019-02-10T06:08:20.831Z,6.80
2019-02-10T06:10:49.034Z,6.80
2019-02-10T06:13:17.182Z,6.80
2019-02-10T06:15:45.352Z,6.90
2019-02-10T06:18:13.558Z,6.90
2019-02-10T06:20:41.783Z,6.90
2019-02-10T06:23:09.994Z,6.90
2019-02-10T06:25:38.239Z,7.00
2019-02-10T06:28:06.373Z,7.00
2019-02-10T06:30:34.566Z,7.00
2019-02-10T06:33:02.768Z,7.10
2019-02-10T06:35:30.931Z,7.20
2019-02-10T06:37:59.161Z,7.20
2019-02-10T06:40:27.343Z,7.20
2019-02-10T06:42:55.546Z,7.30
2019-02-10T06:45:23.721Z,7.30
2019-02-10T06:47:51.865Z,7.40
2019-02-10T06:50:20.020Z,7.40
2019-02-10T06:52:48.176Z,7.40
2019-02-10T06:55:16.353Z,7.40
2019-02-10T06:57:44.515Z,7.40
2019-02-10T07:00:14.370Z,7.50
2019-02-10T07:03:02.854Z,7.50
2019-02-10T07:05:31.058Z,7.50
2019-02-10T07:07:59.203Z,7.50
2019-02-10T07:10:27.337Z,7.50
2019-02-10T07:12:55.519Z,7.50
2019-02-10T07:15:42.185Z,7.60
2019-02-10T07:18:20.742Z,7.60
2019-02-10T07:20:48.914Z,7.60
2019-02-10T07:23:35.446Z,7.60
2019-02-10T07:26:03.601Z,7.70
2019-02-10T07:28:38.605Z,7.70
2019-02-10T07:31:07.133Z,7.70
2019-02-10T07:33:42.310Z,7.80
2019-02-10T07:36:17.491Z,7.70
2019-02-10T07:38:53.155Z,7.70
2019-02-10T07:41:38.037Z,7.80
2019-02-10T07:44:22.944Z,7.80
2019-02-10T07:47:10.715Z,7.80
2019-02-10T07:49:45.959Z,7.80
2019-02-10T07:52:30.378Z,7.80
2019-02-10T07:55:16.449Z,7.90
2019-02-10T07:57:46.209Z,7.90
2019-02-10T08:00:15.939Z,7.90
2019-02-10T08:02:57.669Z,8.00
2019-02-10T08:05:36.459Z,8.10
2019-02-10T08:08:18.199Z,8.10
2019-02-10T08:10:47.918Z,8.10
2019-02-10T08:13:20.739Z,8.20
2019-02-10T08:15:53.264Z,8.20
2019-02-10T08:18:22.961Z,8.30
2019-02-10T08:20:52.682Z,8.30
2019-02-10T08:23:31.337Z,8.30
2019-02-10T08:26:03.837Z,8.40
2019-02-10T08:28:39.014Z,8.40
2019-02-10T08:31:08.811Z,8.40
2019-02-10T08:33:38.560Z,8.40
2019-02-10T08:36:11.128Z,8.40
2019-02-10T08:38:54.277Z,8.50
2019-02-10T08:41:26.634Z,8.50
2019-02-10T08:43:58.762Z,8.60
2019-02-10T08:46:46.259Z,8.70
2019-02-10T08:49:25.689Z,8.80
2019-02-10T08:51:55.600Z,8.80
2019-02-10T08:54:23.923Z,8.80
2019-02-10T08:56:52.095Z,8.80
2019-02-10T08:59:20.270Z,8.90
2019-02-10T09:01:48.427Z,8.90
2019-02-10T09:04:16.615Z,9.00
2019-02-10T09:06:44.879Z,9.10
2019-02-10T09:09:13.185Z,9.20
2019-02-10T09:11:41.468Z,9.30
2019-02-10T09:14:09.705Z,9.40
2019-02-10T09:16:37.891Z,9.40
2019-02-10T09:19:06.113Z,9.40
2019-02-10T09:21:34.286Z,9.40
2019-02-10T09:24:02.451Z,9.40
2019-02-10T09:26:30.637Z,9.40
2019-02-10T09:28:58.936Z,9.40
2019-02-10T09:31:27.101Z,9.40
2019-02-10T09:33:55.340Z,9.50
2019-02-10T09:36:23.762Z,9.60
2019-02-10T09:38:52.095Z,9.60
2019-02-10T09:41:20.240Z,9.70
2019-02-10T09:43:48.476Z,9.70
2019-02-10T09:46:16.695Z,9.70
2019-02-10T09:49:04.258Z,9.70
2019-02-10T09:51:32.466Z,9.70
2019-02-10T09:54:00.633Z,9.60
2019-02-10T09:56:28.856Z,9.50
2019-02-10T09:58:57.243Z,9.40
2019-02-10T10:01:25.603Z,9.40
2019-02-10T10:03:53.797Z,9.30
2019-02-10T10:06:22.682Z,9.20
2019-02-10T10:08:50.935Z,9.10
2019-02-10T10:11:19.155Z,9.10
2019-02-10T10:13:47.345Z,9.00
2019-02-10T10:16:15.750Z,9.00
2019-02-10T10:18:44.424Z,9.00
2019-02-10T10:21:12.812Z,8.90
2019-02-10T10:23:41.349Z,8.90
2019-02-10T10:26:09.664Z,8.80
2019-02-10T10:28:37.907Z,8.80
2019-02-10T10:31:06.211Z,8.80
2019-02-10T10:33:34.479Z,8.80
2019-02-10T10:36:02.649Z,8.80
2019-02-10T10:38:30.862Z,8.70
2019-02-10T10:40:59.018Z,8.70
2019-02-10T10:43:27.275Z,8.70
2019-02-10T10:45:55.586Z,8.70
2019-02-10T10:48:23.823Z,8.70
2019-02-10T10:50:52.063Z,8.70
2019-02-10T10:53:20.234Z,8.70
2019-02-10T10:55:48.564Z,8.70
2019-02-10T10:58:16.711Z,8.70
2019-02-10T11:00:44.954Z,8.70
2019-02-10T11:03:32.462Z,8.70
2019-02-10T11:06:01.211Z,8.70
2019-02-10T11:08:29.450Z,8.70
2019-02-10T11:10:57.739Z,8.70
2019-02-10T11:13:25.886Z,8.70
2019-02-10T11:15:54.079Z,8.80
2019-02-10T11:18:22.304Z,8.80
2019-02-10T11:20:54.570Z,8.80
2019-02-10T11:23:22.799Z,8.90
2019-02-10T11:25:51.128Z,9.00
2019-02-10T11:28:19.407Z,9.00
2019-02-10T11:30:47.610Z,9.10
2019-02-10T11:33:15.838Z,9.10
2019-02-10T11:35:44.007Z,9.10
2019-02-10T11:38:12.150Z,9.10
2019-02-10T11:40:40.339Z,9.10
2019-02-10T11:43:08.517Z,9.00
2019-02-10T11:45:40.791Z,9.00
2019-02-10T11:48:09.201Z,8.90
2019-02-10T11:50:37.366Z,8.90
2019-02-10T11:53:06.516Z,8.90
2019-02-10T11:55:34.807Z,8.90
2019-02-10T11:58:02.989Z,9.00
2019-02-10T12:00:31.210Z,9.00
2019-02-10T12:02:59.599Z,9.20
2019-02-10T12:05:27.912Z,9.20
2019-02-10T12:07:56.100Z,9.20
2019-02-10T12:10:25.792Z,9.30
2019-02-10T12:12:54.141Z,9.30
2019-02-10T12:15:22.335Z,9.40
2019-02-10T12:17:50.586Z,9.40
2019-02-10T12:20:18.732Z,9.30
2019-02-10T12:22:50.212Z,9.30
2019-02-10T12:25:16.863Z,9.30
2019-02-10T12:27:45.499Z,9.20
2019-02-10T12:30:14.421Z,9.20
2019-02-10T12:32:42.708Z,9.10
2019-02-10T12:35:11.358Z,9.20
2019-02-10T12:37:39.662Z,9.20
2019-02-10T12:40:08.411Z,9.20
2019-02-10T12:42:36.597Z,9.20
2019-02-10T12:45:05.823Z,9.10
2019-02-10T12:47:34.070Z,9.10
2019-02-10T12:50:02.250Z,9.00
2019-02-10T12:52:30.479Z,9.00
2019-02-10T12:55:02.763Z,8.90
2019-02-10T12:57:30.903Z,8.90
2019-02-10T12:59:59.105Z,8.90
2019-02-10T13:02:27.311Z,8.80
2019-02-10T13:04:55.588Z,8.70
2019-02-10T13:07:23.751Z,8.50
2019-02-10T13:09:51.940Z,8.40
2019-02-10T13:12:20.155Z,8.30
2019-02-10T13:14:48.322Z,8.20
2019-02-10T13:17:20.615Z,8.20
2019-02-10T13:19:49.009Z,8.10
2019-02-10T13:22:17.425Z,8.10
2019-02-10T13:24:45.634Z,8.00
2019-02-10T13:27:13.795Z,8.00
2019-02-10T13:29:42.071Z,7.90
2019-02-10T13:32:10.352Z,7.90
2019-02-10T13:34:38.562Z,7.80
2019-02-10T13:37:06.759Z,7.80
2019-02-10T13:39:34.958Z,7.70
2019-02-10T13:42:03.306Z,7.70
2019-02-10T13:44:31.449Z,7.80
2019-02-10T13:46:59.731Z,7.80
2019-02-10T13:49:27.874Z,7.80
2019-02-10T13:51:56.277Z,7.80
2019-02-10T13:54:24.603Z,7.90
2019-02-10T13:56:56.898Z,7.90
2019-02-10T13:59:25.046Z,7.90
2019-02-10T14:01:53.232Z,8.00
2019-02-10T14:04:21.388Z,8.10
2019-02-10T14:06:49.569Z,8.20
2019-02-10T14:09:17.723Z,8.30
2019-02-10T14:11:49.997Z,8.40
2019-02-10T14:14:18.229Z,8.40
2019-02-10T14:16:46.390Z,8.40
2019-02-10T14:19:14.667Z,8.40
2019-02-10T14:21:42.842Z,8.30
2019-02-10T14:24:11.090Z,8.20
2019-02-10T14:26:39.280Z,8.10
2019-02-10T14:29:07.546Z,8.10
2019-02-10T14:31:35.856Z,8.00
2019-02-10T14:34:04.092Z,8.00
2019-02-10T14:36:32.241Z,7.90
2019-02-10T14:39:00.710Z,7.90
2019-02-10T14:41:48.200Z,7.90
2019-02-10T14:44:16.491Z,7.80
2019-02-10T14:46:44.638Z,7.90
2019-02-10T14:49:12.812Z,7.80
2019-02-10T14:51:41.040Z,7.80
2019-02-10T14:54:09.292Z,7.90
2019-02-10T14:56:37.422Z,7.90
2019-02-10T14:59:05.615Z,7.90
2019-02-10T15:01:33.760Z,7.90
2019-02-10T15:04:01.988Z,8.00
2019-02-10T15:06:30.213Z,8.00
2019-02-10T15:08:58.589Z,8.00
2019-02-10T15:11:26.731Z,8.10
2019-02-10T15:13:54.907Z,8.10
2019-02-10T15:16:23.051Z,8.10
2019-02-10T15:18:51.278Z,8.00
2019-02-10T15:21:19.507Z,8.00
2019-02-10T15:23:47.838Z,8.00
2019-02-10T15:26:16.006Z,8.00
2019-02-10T15:28:44.160Z,8.00
2019-02-10T15:31:12.423Z,8.00
2019-02-10T15:33:40.630Z,8.00
2019-02-10T15:36:08.872Z,7.90
2019-02-10T15:38:37.034Z,7.80
2019-02-10T15:41:05.297Z,7.70
2019-02-10T15:43:33.450Z,7.70
2019-02-10T15:46:01.615Z,7.50
2019-02-10T15:48:29.779Z,7.50
2019-02-10T15:51:02.013Z,7.40
2019-02-10T15:53:30.206Z,7.30
2019-02-10T15:55:58.472Z,7.10
2019-02-10T15:58:26.859Z,7.00
2019-02-10T16:00:59.131Z,6.90
2019-02-10T16:03:27.315Z,6.90
2019-02-10T16:05:55.562Z,6.80
2019-02-10T16:08:23.738Z,6.80
2019-02-10T16:10:58.027Z,6.70
2019-02-10T16:13:21.874Z,6.70
2019-02-10T16:15:50.248Z,6.70
2019-02-10T16:18:18.386Z,6.70
2019-02-10T16:20:46.555Z,6.70
2019-02-10T16:23:34.120Z,6.70
2019-02-10T16:26:02.406Z,6.70
2019-02-10T16:28:30.562Z,6.80
2019-02-10T16:30:58.749Z,6.70
2019-02-10T16:33:27.049Z,6.80
2019-02-10T16:35:55.302Z,6.70
2019-02-10T16:38:27.603Z,6.70
2019-02-10T16:40:55.767Z,6.70
2019-02-10T16:43:24.009Z,6.70
2019-02-10T16:45:52.146Z,6.70
2019-02-10T16:48:20.342Z,6.70
2019-02-10T16:50:48.528Z,6.70
2019-02-10T16:53:16.873Z,6.70
2019-02-10T16:55:45.020Z,6.70
2019-02-10T16:58:13.239Z,6.70
2019-02-10T17:00:41.412Z,6.60
2019-02-10T17:03:09.787Z,6.60
2019-02-10T17:05:38.006Z,6.50
2019-02-10T17:08:06.369Z,6.50
2019-02-10T17:10:34.560Z,6.50
2019-02-10T17:13:06.742Z,6.40
2019-02-10T17:15:34.884Z,6.40
2019-02-10T17:18:03.190Z,6.40
2019-02-10T17:20:31.334Z,6.40
2019-02-10T17:22:59.523Z,6.30
2019-02-10T17:25:28.718Z,6.30
2019-02-10T17:27:56.944Z,6.30
2019-02-10T17:30:29.275Z,6.30
2019-02-10T17:32:57.527Z,6.20
2019-02-10T17:35:25.766Z,6.20
2019-02-10T17:37:58.057Z,6.20
2019-02-10T17:40:30.742Z,6.20
2019-02-10T17:42:59.042Z,6.20
2019-02-10T17:45:27.340Z,6.10
2019-02-10T17:47:55.511Z,6.10
2019-02-10T17:50:23.749Z,6.00
2019-02-10T17:52:52.052Z,6.00
2019-02-10T17:55:21.158Z,6.00
2019-02-10T17:57:49.328Z,6.00
2019-02-10T18:00:18.559Z,6.00
2019-02-10T18:02:46.749Z,5.90
2019-02-10T18:05:15.085Z,5.90
2019-02-10T18:08:02.582Z,5.80
2019-02-10T18:10:30.947Z,5.80
2019-02-10T18:12:59.257Z,5.80
2019-02-10T18:15:35.726Z,5.80
2019-02-10T18:18:11.590Z,5.80
2019-02-10T18:20:58.674Z,5.70
2019-02-10T18:23:32.088Z,5.70
2019-02-10T18:26:19.299Z,5.60
2019-02-10T18:29:05.018Z,5.50
2019-02-10T18:31:51.694Z,5.40
2019-02-10T18:34:22.459Z,5.30
2019-02-10T18:36:59.183Z,5.20
2019-02-10T18:39:29.829Z,5.20
2019-02-10T18:42:00.632Z,5.20
2019-02-10T18:44:34.370Z,5.10
2019-02-10T18:47:07.585Z,4.90
2019-02-10T18:49:44.170Z,4.80
2019-02-10T18:52:21.501Z,4.70
2019-02-10T18:54:52.525Z,4.60
2019-02-10T18:57:35.451Z,4.60
2019-02-10T19:00:09.227Z,4.50
2019-02-10T19:02:45.627Z,4.50
2019-02-10T19:05:21.986Z,4.50
2019-02-10T19:07:58.685Z,4.50
2019-02-10T19:10:32.166Z,4.40
2019-02-10T19:13:02.899Z,4.30
2019-02-10T19:15:42.138Z,4.30
2019-02-10T19:18:13.094Z,4.30
2019-02-10T19:20:43.842Z,4.30
2019-02-10T19:23:18.651Z,4.30
2019-02-10T19:25:49.389Z,4.30
2019-02-10T19:28:27.101Z,4.30
2019-02-10T19:31:14.998Z,4.40
2019-02-10T19:34:01.976Z,4.40
2019-02-10T19:36:43.275Z,4.40
2019-02-10T19:39:26.075Z,4.40
2019-02-10T19:42:21.859Z,4.40
2019-02-10T19:44:55.332Z,4.30
2019-02-10T19:47:28.802Z,4.20
2019-02-10T19:50:01.965Z,4.10
2019-02-10T19:52:32.692Z,4.00
2019-02-10T19:55:19.388Z,4.00
2019-02-10T19:57:50.092Z,3.90
2019-02-10T20:00:20.943Z,3.90
2019-02-10T20:02:51.659Z,3.80
2019-02-10T20:05:22.355Z,3.80
2019-02-10T20:07:55.790Z,3.80
2019-02-10T20:10:54.978Z,3.80
2019-02-10T20:13:31.380Z,3.80
2019-02-10T20:16:04.682Z,3.80
2019-02-10T20:18:51.418Z,3.80
2019-02-10T20:21:38.202Z,3.80
2019-02-10T20:24:08.941Z,3.80
2019-02-10T20:26:51.840Z,3.80
2019-02-10T20:29:34.380Z,3.80
2019-02-10T20:32:14.252Z,3.80
2019-02-10T20:34:50.792Z,3.80
2019-02-10T20:37:21.581Z,3.80
2019-02-10T20:39:52.222Z,3.80
2019-02-10T20:42:28.520Z,3.80
2019-02-10T20:44:59.275Z,3.80
2019-02-10T20:47:48.055Z,3.80
2019-02-10T20:50:30.937Z,3.80
2019-02-10T20:53:17.883Z,3.80
2019-02-10T20:55:48.552Z,3.70
2019-02-10T20:58:25.108Z,3.60
2019-02-10T21:01:12.319Z,3.60
2019-02-10T21:03:48.672Z,3.60
2019-02-10T21:06:28.122Z,3.50
2019-02-10T21:09:13.738Z,3.50
2019-02-10T21:11:50.252Z,3.40
2019-02-10T21:14:43.016Z,3.40
2019-02-10T21:17:13.900Z,3.40
2019-02-10T21:19:47.291Z,3.40
2019-02-10T21:22:36.222Z,3.40
2019-02-10T21:25:27.079Z,3.40
2019-02-10T21:28:00.807Z,3.30
2019-02-10T21:30:46.885Z,3.20
2019-02-10T21:33:17.929Z,3.10
2019-02-10T21:35:51.620Z,3.10
2019-02-10T21:38:31.787Z,3.00
2019-02-10T21:41:05.113Z,3.00
2019-02-10T21:43:36.039Z,3.10
2019-02-10T21:46:06.833Z,3.00
2019-02-10T21:48:35.872Z,3.10
2019-02-10T21:51:24.222Z,3.10
2019-02-10T21:53:53.287Z,3.10
2019-02-10T21:56:22.308Z,3.10
2019-02-10T21:58:51.472Z,3.10
2019-02-10T22:01:20.581Z,3.10
2019-02-10T22:03:49.682Z,3.00
2019-02-10T22:06:22.733Z,3.00
2019-02-10T22:08:51.978Z,3.00
2019-02-10T22:11:21.174Z,3.00
2019-02-10T22:13:50.258Z,3.00
2019-02-10T22:16:19.378Z,3.00
2019-02-10T22:18:48.503Z,3.00
2019-02-10T22:21:17.627Z,3.00
2019-02-10T22:23:46.862Z,3.00
2019-02-10T22:26:15.964Z,3.00
2019-02-10T22:28:44.975Z,3.00
2019-02-10T22:31:18.773Z,2.90
2019-02-10T22:33:51.392Z,2.90
2019-02-10T22:36:15.443Z,2.90
2019-02-10T22:38:44.481Z,2.90
2019-02-10T22:41:14.019Z,2.90
2019-02-10T22:43:43.050Z,2.80
2019-02-10T22:46:12.131Z,2.70
2019-02-10T22:48:41.191Z,2.60
2019-02-10T22:51:10.259Z,2.50
2019-02-10T22:53:39.337Z,2.50
2019-02-10T22:56:08.331Z,2.50
2019-02-10T22:58:37.675Z,2.30
2019-02-10T23:01:07.771Z,2.20
2019-02-10T23:03:37.070Z,2.10
2019-02-10T23:06:06.167Z,2.00
2019-02-10T23:08:35.178Z,1.90
2019-02-10T23:11:04.347Z,1.80
2019-02-10T23:13:33.507Z,1.80
2019-02-10T23:16:02.563Z,1.70
2019-02-10T23:18:31.672Z,1.60
2019-02-10T23:21:00.930Z,1.70
2019-02-10T23:23:29.945Z,1.70
2019-02-10T23:25:58.937Z,1.70
2019-02-10T23:28:27.965Z,1.70
2019-02-10T23:30:56.981Z,1.70
2019-02-10T23:33:26.080Z,1.60
2019-02-10T23:35:55.306Z,1.60
2019-02-10T23:38:24.398Z,1.60
2019-02-10T23:40:53.400Z,1.60
2019-02-10T23:43:22.539Z,1.60
2019-02-10T23:45:51.600Z,1.60
2019-02-10T23:48:20.854Z,1.60
2019-02-10T23:50:49.876Z,1.70
2019-02-10T23:53:18.870Z,1.70
2019-02-10T23:55:47.898Z,1.70
2019-02-10T23:58:16.900Z,1.70
